sensor_id;sensor_type;location;lat;lon;timestamp;P1;durP1;ratioP1;P2;durP2;ratioP2
11596;SDS011;5854;48.072;16.286;2024-01-30T00:00:33;17.33;;;11.80;;
11596;SDS011;5854;48.072;16.286;2024-01-30T00:03:00;15.52;;;9.93;;
11596;SDS011;5854;48.072;16.286;2024-01-30T00:05:28;19.95;;;10.95;;
11596;SDS011;5854;48.072;16.286;2024-01-30T00:07:55;17.85;;;11.00;;
11596;SDS011;5854;48.072;16.286;2024-01-30T00:10:22;17.90;;;11.50;;
11596;SDS011;5854;48.072;16.286;2024-01-30T00:12:51;16.20;;;11.02;;
11596;SDS011;5854;48.072;16.286;2024-01-30T00:15:18;21.08;;;12.10;;
11596;SDS011;5854;48.072;16.286;2024-01-30T00:17:45;18.95;;;10.73;;
11596;SDS011;5854;48.072;16.286;2024-01-30T00:20:13;15.75;;;11.00;;
11596;SDS011;5854;48.072;16.286;2024-01-30T00:22:40;17.48;;;10.95;;
11596;SDS011;5854;48.072;16.286;2024-01-30T00:25:07;21.13;;;12.95;;
11596;SDS011;5854;48.072;16.286;2024-01-30T00:27:35;16.75;;;10.50;;
11596;SDS011;5854;48.072;16.286;2024-01-30T00:30:04;24.60;;;12.20;;
11596;SDS011;5854;48.072;16.286;2024-01-30T00:32:33;28.65;;;11.95;;
11596;SDS011;5854;48.072;16.286;2024-01-30T00:35:00;22.52;;;11.48;;
11596;SDS011;5854;48.072;16.286;2024-01-30T00:37:27;16.48;;;10.35;;
11596;SDS011;5854;48.072;16.286;2024-01-30T00:39:54;20.17;;;12.32;;
11596;SDS011;5854;48.072;16.286;2024-01-30T00:42:21;13.02;;;9.68;;
11596;SDS011;5854;48.072;16.286;2024-01-30T00:44:49;14.13;;;11.93;;
11596;SDS011;5854;48.072;16.286;2024-01-30T00:47:17;30.63;;;13.07;;
11596;SDS011;5854;48.072;16.286;2024-01-30T00:49:45;13.48;;;10.70;;
11596;SDS011;5854;48.072;16.286;2024-01-30T00:52:12;20.38;;;11.85;;
11596;SDS011;5854;48.072;16.286;2024-01-30T00:54:39;29.20;;;12.32;;
11596;SDS011;5854;48.072;16.286;2024-01-30T00:57:06;25.48;;;13.13;;
11596;SDS011;5854;48.072;16.286;2024-01-30T00:59:34;16.90;;;12.68;;
11596;SDS011;5854;48.072;16.286;2024-01-30T01:02:01;22.10;;;11.68;;
11596;SDS011;5854;48.072;16.286;2024-01-30T01:04:30;18.17;;;11.60;;
11596;SDS011;5854;48.072;16.286;2024-01-30T01:06:57;14.25;;;10.10;;
11596;SDS011;5854;48.072;16.286;2024-01-30T01:09:25;15.55;;;10.48;;
11596;SDS011;5854;48.072;16.286;2024-01-30T01:11:53;14.88;;;10.35;;
11596;SDS011;5854;48.072;16.286;2024-01-30T01:14:20;12.90;;;9.80;;
11596;SDS011;5854;48.072;16.286;2024-01-30T01:16:47;14.25;;;11.05;;
11596;SDS011;5854;48.072;16.286;2024-01-30T01:19:14;16.73;;;10.95;;
11596;SDS011;5854;48.072;16.286;2024-01-30T01:21:43;20.58;;;10.30;;
11596;SDS011;5854;48.072;16.286;2024-01-30T01:24:10;19.20;;;11.85;;
11596;SDS011;5854;48.072;16.286;2024-01-30T01:26:38;16.27;;;11.93;;
11596;SDS011;5854;48.072;16.286;2024-01-30T01:29:05;18.88;;;11.32;;
11596;SDS011;5854;48.072;16.286;2024-01-30T01:31:35;19.23;;;10.70;;
11596;SDS011;5854;48.072;16.286;2024-01-30T01:34:08;15.38;;;11.50;;
11596;SDS011;5854;48.072;16.286;2024-01-30T01:36:35;11.63;;;10.05;;
11596;SDS011;5854;48.072;16.286;2024-01-30T01:39:04;10.23;;;9.15;;
11596;SDS011;5854;48.072;16.286;2024-01-30T01:41:31;16.58;;;11.48;;
11596;SDS011;5854;48.072;16.286;2024-01-30T01:43:59;14.25;;;10.93;;
11596;SDS011;5854;48.072;16.286;2024-01-30T01:46:27;22.05;;;11.30;;
11596;SDS011;5854;48.072;16.286;2024-01-30T01:48:59;17.67;;;11.05;;
11596;SDS011;5854;48.072;16.286;2024-01-30T01:51:29;12.05;;;9.63;;
11596;SDS011;5854;48.072;16.286;2024-01-30T01:53:58;10.77;;;9.65;;
11596;SDS011;5854;48.072;16.286;2024-01-30T01:56:29;25.58;;;10.02;;
11596;SDS011;5854;48.072;16.286;2024-01-30T01:58:59;13.95;;;9.35;;
11596;SDS011;5854;48.072;16.286;2024-01-30T02:01:31;18.27;;;10.15;;
11596;SDS011;5854;48.072;16.286;2024-01-30T02:04:00;17.67;;;9.73;;
11596;SDS011;5854;48.072;16.286;2024-01-30T02:06:27;10.60;;;8.30;;
11596;SDS011;5854;48.072;16.286;2024-01-30T02:08:55;14.30;;;10.13;;
11596;SDS011;5854;48.072;16.286;2024-01-30T02:11:22;20.10;;;10.00;;
11596;SDS011;5854;48.072;16.286;2024-01-30T02:13:51;13.30;;;8.77;;
11596;SDS011;5854;48.072;16.286;2024-01-30T02:16:19;11.60;;;9.27;;
11596;SDS011;5854;48.072;16.286;2024-01-30T02:18:46;10.63;;;9.02;;
11596;SDS011;5854;48.072;16.286;2024-01-30T02:21:15;11.57;;;8.90;;
11596;SDS011;5854;48.072;16.286;2024-01-30T02:23:43;9.82;;;8.30;;
11596;SDS011;5854;48.072;16.286;2024-01-30T02:26:13;14.07;;;9.82;;
11596;SDS011;5854;48.072;16.286;2024-01-30T02:28:40;20.80;;;10.73;;
11596;SDS011;5854;48.072;16.286;2024-01-30T02:31:07;12.00;;;8.95;;
11596;SDS011;5854;48.072;16.286;2024-01-30T02:33:35;13.40;;;8.45;;
11596;SDS011;5854;48.072;16.286;2024-01-30T02:36:02;13.18;;;8.82;;
11596;SDS011;5854;48.072;16.286;2024-01-30T02:38:32;13.63;;;9.25;;
11596;SDS011;5854;48.072;16.286;2024-01-30T02:40:59;19.13;;;11.23;;
11596;SDS011;5854;48.072;16.286;2024-01-30T02:43:26;13.30;;;9.48;;
11596;SDS011;5854;48.072;16.286;2024-01-30T02:45:53;16.13;;;10.23;;
11596;SDS011;5854;48.072;16.286;2024-01-30T02:48:21;16.30;;;10.25;;
11596;SDS011;5854;48.072;16.286;2024-01-30T02:50:48;14.65;;;8.90;;
11596;SDS011;5854;48.072;16.286;2024-01-30T02:53:15;17.60;;;10.43;;
11596;SDS011;5854;48.072;16.286;2024-01-30T02:55:43;24.15;;;10.52;;
11596;SDS011;5854;48.072;16.286;2024-01-30T02:58:11;18.40;;;8.80;;
11596;SDS011;5854;48.072;16.286;2024-01-30T03:00:38;17.15;;;10.38;;
11596;SDS011;5854;48.072;16.286;2024-01-30T03:03:05;18.58;;;9.75;;
11596;SDS011;5854;48.072;16.286;2024-01-30T03:05:32;15.73;;;10.00;;
11596;SDS011;5854;48.072;16.286;2024-01-30T03:08:00;12.05;;;9.77;;
11596;SDS011;5854;48.072;16.286;2024-01-30T03:10:27;22.35;;;9.02;;
11596;SDS011;5854;48.072;16.286;2024-01-30T03:12:55;21.42;;;10.18;;
11596;SDS011;5854;48.072;16.286;2024-01-30T03:15:23;13.10;;;8.70;;
11596;SDS011;5854;48.072;16.286;2024-01-30T03:17:50;14.32;;;8.57;;
11596;SDS011;5854;48.072;16.286;2024-01-30T03:20:17;14.25;;;10.10;;
11596;SDS011;5854;48.072;16.286;2024-01-30T03:22:44;21.05;;;9.35;;
11596;SDS011;5854;48.072;16.286;2024-01-30T03:25:11;15.68;;;10.13;;
11596;SDS011;5854;48.072;16.286;2024-01-30T03:27:39;18.23;;;10.05;;
11596;SDS011;5854;48.072;16.286;2024-01-30T03:30:08;10.90;;;9.77;;
11596;SDS011;5854;48.072;16.286;2024-01-30T03:32:36;16.45;;;9.50;;
11596;SDS011;5854;48.072;16.286;2024-01-30T03:35:03;13.07;;;10.75;;
11596;SDS011;5854;48.072;16.286;2024-01-30T03:37:32;13.10;;;9.48;;
11596;SDS011;5854;48.072;16.286;2024-01-30T03:39:59;18.80;;;8.70;;
11596;SDS011;5854;48.072;16.286;2024-01-30T03:42:26;18.10;;;10.88;;
11596;SDS011;5854;48.072;16.286;2024-01-30T03:44:53;11.98;;;9.63;;
11596;SDS011;5854;48.072;16.286;2024-01-30T03:47:22;23.73;;;9.60;;
11596;SDS011;5854;48.072;16.286;2024-01-30T03:49:49;16.50;;;10.75;;
11596;SDS011;5854;48.072;16.286;2024-01-30T03:52:16;14.25;;;10.05;;
11596;SDS011;5854;48.072;16.286;2024-01-30T03:54:44;15.32;;;10.30;;
11596;SDS011;5854;48.072;16.286;2024-01-30T03:57:11;10.73;;;9.73;;
11596;SDS011;5854;48.072;16.286;2024-01-30T03:59:38;12.43;;;9.50;;
11596;SDS011;5854;48.072;16.286;2024-01-30T04:02:09;14.43;;;9.32;;
11596;SDS011;5854;48.072;16.286;2024-01-30T04:04:38;13.02;;;9.57;;
11596;SDS011;5854;48.072;16.286;2024-01-30T04:07:05;13.73;;;9.48;;
11596;SDS011;5854;48.072;16.286;2024-01-30T04:09:33;11.98;;;10.57;;
11596;SDS011;5854;48.072;16.286;2024-01-30T04:12:00;15.38;;;10.85;;
11596;SDS011;5854;48.072;16.286;2024-01-30T04:14:28;11.68;;;10.48;;
11596;SDS011;5854;48.072;16.286;2024-01-30T04:16:55;25.30;;;10.38;;
11596;SDS011;5854;48.072;16.286;2024-01-30T04:19:22;16.90;;;10.25;;
11596;SDS011;5854;48.072;16.286;2024-01-30T04:21:51;14.75;;;11.55;;
11596;SDS011;5854;48.072;16.286;2024-01-30T04:24:18;20.70;;;10.55;;
11596;SDS011;5854;48.072;16.286;2024-01-30T04:26:45;14.77;;;11.10;;
11596;SDS011;5854;48.072;16.286;2024-01-30T04:29:12;13.77;;;10.10;;
11596;SDS011;5854;48.072;16.286;2024-01-30T04:31:39;19.23;;;11.55;;
11596;SDS011;5854;48.072;16.286;2024-01-30T04:34:07;18.30;;;10.35;;
11596;SDS011;5854;48.072;16.286;2024-01-30T04:36:34;20.33;;;11.00;;
11596;SDS011;5854;48.072;16.286;2024-01-30T04:39:03;12.45;;;10.82;;
11596;SDS011;5854;48.072;16.286;2024-01-30T04:41:30;13.10;;;8.48;;
11596;SDS011;5854;48.072;16.286;2024-01-30T04:43:57;12.18;;;9.80;;
11596;SDS011;5854;48.072;16.286;2024-01-30T04:46:24;17.17;;;10.07;;
11596;SDS011;5854;48.072;16.286;2024-01-30T04:48:52;14.82;;;10.95;;
11596;SDS011;5854;48.072;16.286;2024-01-30T04:51:19;12.93;;;9.80;;
11596;SDS011;5854;48.072;16.286;2024-01-30T04:53:46;19.45;;;10.50;;
11596;SDS011;5854;48.072;16.286;2024-01-30T04:56:15;12.15;;;9.65;;
11596;SDS011;5854;48.072;16.286;2024-01-30T04:58:42;31.02;;;10.38;;
11596;SDS011;5854;48.072;16.286;2024-01-30T05:01:09;13.25;;;10.52;;
11596;SDS011;5854;48.072;16.286;2024-01-30T05:06:08;12.57;;;9.27;;
11596;SDS011;5854;48.072;16.286;2024-01-30T05:08:35;12.15;;;9.13;;
11596;SDS011;5854;48.072;16.286;2024-01-30T05:11:03;14.77;;;10.32;;
11596;SDS011;5854;48.072;16.286;2024-01-30T05:13:33;18.13;;;9.45;;
11596;SDS011;5854;48.072;16.286;2024-01-30T05:16:01;11.80;;;10.25;;
11596;SDS011;5854;48.072;16.286;2024-01-30T05:18:29;16.08;;;9.45;;
11596;SDS011;5854;48.072;16.286;2024-01-30T05:20:56;16.55;;;10.77;;
11596;SDS011;5854;48.072;16.286;2024-01-30T05:23:26;13.57;;;10.07;;
11596;SDS011;5854;48.072;16.286;2024-01-30T05:25:53;15.90;;;10.38;;
11596;SDS011;5854;48.072;16.286;2024-01-30T05:28:20;16.30;;;12.05;;
11596;SDS011;5854;48.072;16.286;2024-01-30T05:30:55;11.75;;;9.48;;
11596;SDS011;5854;48.072;16.286;2024-01-30T05:33:22;10.65;;;9.30;;
11596;SDS011;5854;48.072;16.286;2024-01-30T05:35:52;14.82;;;9.38;;
11596;SDS011;5854;48.072;16.286;2024-01-30T05:38:19;13.13;;;9.60;;
11596;SDS011;5854;48.072;16.286;2024-01-30T05:40:46;16.20;;;11.35;;
11596;SDS011;5854;48.072;16.286;2024-01-30T05:43:14;19.58;;;10.43;;
11596;SDS011;5854;48.072;16.286;2024-01-30T05:45:41;14.65;;;10.25;;
11596;SDS011;5854;48.072;16.286;2024-01-30T05:48:11;13.70;;;9.43;;
11596;SDS011;5854;48.072;16.286;2024-01-30T05:50:38;11.85;;;9.77;;
11596;SDS011;5854;48.072;16.286;2024-01-30T05:53:05;9.38;;;8.48;;
11596;SDS011;5854;48.072;16.286;2024-01-30T05:55:32;14.23;;;10.07;;
11596;SDS011;5854;48.072;16.286;2024-01-30T05:58:00;17.40;;;10.75;;
11596;SDS011;5854;48.072;16.286;2024-01-30T06:00:27;18.98;;;11.13;;
11596;SDS011;5854;48.072;16.286;2024-01-30T06:02:54;14.82;;;10.98;;
11596;SDS011;5854;48.072;16.286;2024-01-30T06:05:23;10.48;;;9.15;;
11596;SDS011;5854;48.072;16.286;2024-01-30T06:07:50;32.40;;;10.68;;
11596;SDS011;5854;48.072;16.286;2024-01-30T06:10:17;16.13;;;10.88;;
11596;SDS011;5854;48.072;16.286;2024-01-30T06:12:45;12.88;;;9.02;;
11596;SDS011;5854;48.072;16.286;2024-01-30T06:15:13;15.02;;;10.65;;
11596;SDS011;5854;48.072;16.286;2024-01-30T06:17:41;18.63;;;10.68;;
11596;SDS011;5854;48.072;16.286;2024-01-30T06:20:08;11.95;;;10.45;;
11596;SDS011;5854;48.072;16.286;2024-01-30T06:22:37;18.45;;;10.30;;
11596;SDS011;5854;48.072;16.286;2024-01-30T06:25:05;18.98;;;11.57;;
11596;SDS011;5854;48.072;16.286;2024-01-30T06:27:33;14.98;;;9.40;;
11596;SDS011;5854;48.072;16.286;2024-01-30T06:30:00;15.95;;;11.57;;
11596;SDS011;5854;48.072;16.286;2024-01-30T06:32:28;16.67;;;9.85;;
11596;SDS011;5854;48.072;16.286;2024-01-30T06:34:59;19.02;;;12.70;;
11596;SDS011;5854;48.072;16.286;2024-01-30T06:37:27;27.58;;;12.05;;
11596;SDS011;5854;48.072;16.286;2024-01-30T06:39:55;13.63;;;11.70;;
11596;SDS011;5854;48.072;16.286;2024-01-30T06:42:22;15.23;;;10.85;;
11596;SDS011;5854;48.072;16.286;2024-01-30T06:44:50;13.05;;;10.57;;
11596;SDS011;5854;48.072;16.286;2024-01-30T06:47:17;12.88;;;10.35;;
11596;SDS011;5854;48.072;16.286;2024-01-30T06:49:44;13.10;;;9.82;;
11596;SDS011;5854;48.072;16.286;2024-01-30T06:52:11;17.98;;;10.98;;
11596;SDS011;5854;48.072;16.286;2024-01-30T06:54:46;15.13;;;11.00;;
11596;SDS011;5854;48.072;16.286;2024-01-30T06:57:15;15.45;;;11.77;;
11596;SDS011;5854;48.072;16.286;2024-01-30T06:59:42;13.13;;;10.18;;
11596;SDS011;5854;48.072;16.286;2024-01-30T07:02:09;43.38;;;22.15;;
11596;SDS011;5854;48.072;16.286;2024-01-30T07:04:37;82.20;;;35.67;;
11596;SDS011;5854;48.072;16.286;2024-01-30T07:07:04;56.65;;;27.00;;
11596;SDS011;5854;48.072;16.286;2024-01-30T07:09:37;21.60;;;14.82;;
11596;SDS011;5854;48.072;16.286;2024-01-30T07:12:04;17.20;;;10.63;;
11596;SDS011;5854;48.072;16.286;2024-01-30T07:14:34;11.13;;;9.63;;
11596;SDS011;5854;48.072;16.286;2024-01-30T07:17:01;13.82;;;10.95;;
11596;SDS011;5854;48.072;16.286;2024-01-30T07:19:28;12.18;;;10.55;;
11596;SDS011;5854;48.072;16.286;2024-01-30T07:21:56;22.80;;;11.45;;
11596;SDS011;5854;48.072;16.286;2024-01-30T07:24:23;12.00;;;10.75;;
11596;SDS011;5854;48.072;16.286;2024-01-30T07:26:50;12.80;;;9.73;;
11596;SDS011;5854;48.072;16.286;2024-01-30T07:29:18;22.25;;;12.25;;
11596;SDS011;5854;48.072;16.286;2024-01-30T07:31:48;21.08;;;10.60;;
11596;SDS011;5854;48.072;16.286;2024-01-30T07:34:15;13.63;;;11.85;;
11596;SDS011;5854;48.072;16.286;2024-01-30T07:36:43;21.70;;;11.82;;
11596;SDS011;5854;48.072;16.286;2024-01-30T07:39:11;13.27;;;9.40;;
11596;SDS011;5854;48.072;16.286;2024-01-30T07:41:38;15.18;;;10.65;;
11596;SDS011;5854;48.072;16.286;2024-01-30T07:44:05;16.17;;;9.90;;
11596;SDS011;5854;48.072;16.286;2024-01-30T07:46:33;24.48;;;11.95;;
11596;SDS011;5854;48.072;16.286;2024-01-30T07:49:01;12.65;;;11.10;;
11596;SDS011;5854;48.072;16.286;2024-01-30T07:51:29;17.42;;;13.25;;
11596;SDS011;5854;48.072;16.286;2024-01-30T07:53:58;15.20;;;12.55;;
11596;SDS011;5854;48.072;16.286;2024-01-30T07:56:25;28.55;;;13.52;;
11596;SDS011;5854;48.072;16.286;2024-01-30T07:58:53;18.10;;;11.18;;
11596;SDS011;5854;48.072;16.286;2024-01-30T08:01:20;18.75;;;10.55;;
11596;SDS011;5854;48.072;16.286;2024-01-30T08:03:47;19.70;;;13.60;;
11596;SDS011;5854;48.072;16.286;2024-01-30T08:06:16;22.33;;;13.88;;
11596;SDS011;5854;48.072;16.286;2024-01-30T08:08:43;24.33;;;14.82;;
11596;SDS011;5854;48.072;16.286;2024-01-30T08:11:13;17.20;;;14.55;;
11596;SDS011;5854;48.072;16.286;2024-01-30T08:13:44;17.13;;;13.75;;
11596;SDS011;5854;48.072;16.286;2024-01-30T08:16:11;24.13;;;14.20;;
11596;SDS011;5854;48.072;16.286;2024-01-30T08:18:38;18.45;;;12.40;;
11596;SDS011;5854;48.072;16.286;2024-01-30T08:21:05;23.50;;;12.23;;
11596;SDS011;5854;48.072;16.286;2024-01-30T08:23:35;14.60;;;12.85;;
11596;SDS011;5854;48.072;16.286;2024-01-30T08:26:02;24.17;;;14.82;;
11596;SDS011;5854;48.072;16.286;2024-01-30T08:28:29;37.70;;;15.93;;
11596;SDS011;5854;48.072;16.286;2024-01-30T08:30:56;28.45;;;14.98;;
11596;SDS011;5854;48.072;16.286;2024-01-30T08:33:24;20.50;;;13.35;;
11596;SDS011;5854;48.072;16.286;2024-01-30T08:35:51;27.77;;;14.75;;
11596;SDS011;5854;48.072;16.286;2024-01-30T08:38:19;22.73;;;13.98;;
11596;SDS011;5854;48.072;16.286;2024-01-30T08:40:47;23.55;;;15.25;;
11596;SDS011;5854;48.072;16.286;2024-01-30T08:43:15;38.13;;;15.65;;
11596;SDS011;5854;48.072;16.286;2024-01-30T08:45:42;28.13;;;17.35;;
11596;SDS011;5854;48.072;16.286;2024-01-30T08:48:10;20.45;;;14.98;;
11596;SDS011;5854;48.072;16.286;2024-01-30T08:50:37;21.67;;;14.32;;
11596;SDS011;5854;48.072;16.286;2024-01-30T08:53:04;23.65;;;15.27;;
11596;SDS011;5854;48.072;16.286;2024-01-30T08:55:31;26.13;;;16.02;;
11596;SDS011;5854;48.072;16.286;2024-01-30T08:58:00;20.02;;;14.07;;
11596;SDS011;5854;48.072;16.286;2024-01-30T09:00:29;24.37;;;15.10;;
11596;SDS011;5854;48.072;16.286;2024-01-30T09:02:57;31.85;;;15.45;;
11596;SDS011;5854;48.072;16.286;2024-01-30T09:05:24;25.27;;;15.90;;
11596;SDS011;5854;48.072;16.286;2024-01-30T09:07:51;27.15;;;17.20;;
11596;SDS011;5854;48.072;16.286;2024-01-30T09:10:18;22.75;;;15.20;;
11596;SDS011;5854;48.072;16.286;2024-01-30T09:12:46;34.95;;;15.63;;
11596;SDS011;5854;48.072;16.286;2024-01-30T09:15:15;18.90;;;14.00;;
11596;SDS011;5854;48.072;16.286;2024-01-30T09:17:44;23.67;;;13.30;;
11596;SDS011;5854;48.072;16.286;2024-01-30T09:20:11;23.73;;;14.35;;
11596;SDS011;5854;48.072;16.286;2024-01-30T09:22:38;21.80;;;14.60;;
11596;SDS011;5854;48.072;16.286;2024-01-30T09:25:06;25.10;;;12.80;;
11596;SDS011;5854;48.072;16.286;2024-01-30T09:27:34;27.13;;;12.73;;
11596;SDS011;5854;48.072;16.286;2024-01-30T09:30:01;22.98;;;14.55;;
11596;SDS011;5854;48.072;16.286;2024-01-30T09:32:30;27.27;;;14.68;;
11596;SDS011;5854;48.072;16.286;2024-01-30T09:34:58;26.40;;;12.70;;
11596;SDS011;5854;48.072;16.286;2024-01-30T09:37:25;20.40;;;13.38;;
11596;SDS011;5854;48.072;16.286;2024-01-30T09:39:52;20.45;;;12.32;;
11596;SDS011;5854;48.072;16.286;2024-01-30T09:42:22;23.98;;;13.73;;
11596;SDS011;5854;48.072;16.286;2024-01-30T09:44:54;17.65;;;12.20;;
11596;SDS011;5854;48.072;16.286;2024-01-30T09:47:22;17.48;;;13.95;;
11596;SDS011;5854;48.072;16.286;2024-01-30T09:49:51;23.52;;;14.48;;
11596;SDS011;5854;48.072;16.286;2024-01-30T09:52:19;18.02;;;11.70;;
11596;SDS011;5854;48.072;16.286;2024-01-30T09:54:46;33.00;;;12.45;;
11596;SDS011;5854;48.072;16.286;2024-01-30T09:57:16;13.18;;;11.48;;
11596;SDS011;5854;48.072;16.286;2024-01-30T09:59:43;26.50;;;10.98;;
11596;SDS011;5854;48.072;16.286;2024-01-30T10:02:11;28.10;;;13.30;;
11596;SDS011;5854;48.072;16.286;2024-01-30T10:04:38;24.10;;;12.45;;
11596;SDS011;5854;48.072;16.286;2024-01-30T10:07:07;28.58;;;14.25;;
11596;SDS011;5854;48.072;16.286;2024-01-30T10:09:37;23.15;;;14.00;;
11596;SDS011;5854;48.072;16.286;2024-01-30T10:12:05;12.70;;;8.88;;
11596;SDS011;5854;48.072;16.286;2024-01-30T10:14:34;20.08;;;12.07;;
11596;SDS011;5854;48.072;16.286;2024-01-30T10:17:04;22.08;;;12.27;;
11596;SDS011;5854;48.072;16.286;2024-01-30T10:19:33;18.42;;;12.38;;
11596;SDS011;5854;48.072;16.286;2024-01-30T10:22:00;7.53;;;6.93;;
11596;SDS011;5854;48.072;16.286;2024-01-30T10:24:29;12.75;;;11.35;;
11596;SDS011;5854;48.072;16.286;2024-01-30T10:26:57;23.60;;;11.70;;
11596;SDS011;5854;48.072;16.286;2024-01-30T10:29:24;18.35;;;11.73;;
11596;SDS011;5854;48.072;16.286;2024-01-30T10:31:58;12.30;;;9.90;;
11596;SDS011;5854;48.072;16.286;2024-01-30T10:34:25;18.05;;;12.25;;
11596;SDS011;5854;48.072;16.286;2024-01-30T10:36:55;18.60;;;12.57;;
11596;SDS011;5854;48.072;16.286;2024-01-30T10:39:39;20.23;;;9.95;;
11596;SDS011;5854;48.072;16.286;2024-01-30T10:42:07;24.52;;;12.02;;
11596;SDS011;5854;48.072;16.286;2024-01-30T10:44:43;18.83;;;12.55;;
11596;SDS011;5854;48.072;16.286;2024-01-30T10:47:21;14.18;;;10.70;;
11596;SDS011;5854;48.072;16.286;2024-01-30T10:49:52;31.13;;;10.90;;
11596;SDS011;5854;48.072;16.286;2024-01-30T10:52:22;22.77;;;11.38;;
11596;SDS011;5854;48.072;16.286;2024-01-30T10:54:53;20.00;;;11.50;;
11596;SDS011;5854;48.072;16.286;2024-01-30T10:57:21;13.40;;;10.10;;
11596;SDS011;5854;48.072;16.286;2024-01-30T10:59:51;15.40;;;9.48;;
11596;SDS011;5854;48.072;16.286;2024-01-30T11:02:21;15.23;;;9.20;;
11596;SDS011;5854;48.072;16.286;2024-01-30T11:04:50;12.98;;;10.80;;
11596;SDS011;5854;48.072;16.286;2024-01-30T11:07:24;16.00;;;9.95;;
11596;SDS011;5854;48.072;16.286;2024-01-30T11:09:59;11.50;;;8.80;;
11596;SDS011;5854;48.072;16.286;2024-01-30T11:12:31;20.55;;;11.80;;
11596;SDS011;5854;48.072;16.286;2024-01-30T11:15:03;19.27;;;11.20;;
11596;SDS011;5854;48.072;16.286;2024-01-30T11:17:42;23.30;;;11.40;;
11596;SDS011;5854;48.072;16.286;2024-01-30T11:20:11;15.02;;;10.73;;
11596;SDS011;5854;48.072;16.286;2024-01-30T11:22:44;15.27;;;11.13;;
11596;SDS011;5854;48.072;16.286;2024-01-30T11:25:16;21.85;;;10.60;;
11596;SDS011;5854;48.072;16.286;2024-01-30T11:27:45;15.43;;;9.65;;
11596;SDS011;5854;48.072;16.286;2024-01-30T11:30:20;16.13;;;10.50;;
11596;SDS011;5854;48.072;16.286;2024-01-30T11:32:59;14.40;;;9.85;;
11596;SDS011;5854;48.072;16.286;2024-01-30T11:35:32;24.85;;;10.35;;
11596;SDS011;5854;48.072;16.286;2024-01-30T11:38:02;16.55;;;10.82;;
11596;SDS011;5854;48.072;16.286;2024-01-30T11:40:32;15.68;;;9.95;;
11596;SDS011;5854;48.072;16.286;2024-01-30T11:43:02;21.23;;;11.57;;
11596;SDS011;5854;48.072;16.286;2024-01-30T11:45:31;16.13;;;11.15;;
11596;SDS011;5854;48.072;16.286;2024-01-30T11:47:59;15.00;;;10.55;;
11596;SDS011;5854;48.072;16.286;2024-01-30T11:50:28;16.13;;;10.10;;
11596;SDS011;5854;48.072;16.286;2024-01-30T11:52:56;19.35;;;9.95;;
11596;SDS011;5854;48.072;16.286;2024-01-30T11:55:23;16.85;;;10.15;;
11596;SDS011;5854;48.072;16.286;2024-01-30T11:57:52;13.70;;;9.98;;
11596;SDS011;5854;48.072;16.286;2024-01-30T12:00:21;25.40;;;11.38;;
11596;SDS011;5854;48.072;16.286;2024-01-30T12:02:49;11.95;;;8.93;;
11596;SDS011;5854;48.072;16.286;2024-01-30T12:05:20;7.68;;;6.88;;
11596;SDS011;5854;48.072;16.286;2024-01-30T12:07:48;14.20;;;9.32;;
11596;SDS011;5854;48.072;16.286;2024-01-30T12:10:16;25.90;;;11.27;;
11596;SDS011;5854;48.072;16.286;2024-01-30T12:12:45;20.88;;;10.77;;
11596;SDS011;5854;48.072;16.286;2024-01-30T12:15:16;11.73;;;9.35;;
11596;SDS011;5854;48.072;16.286;2024-01-30T12:17:46;12.40;;;9.13;;
11596;SDS011;5854;48.072;16.286;2024-01-30T12:20:14;15.13;;;9.35;;
11596;SDS011;5854;48.072;16.286;2024-01-30T12:22:45;13.67;;;9.17;;
11596;SDS011;5854;48.072;16.286;2024-01-30T12:25:15;14.25;;;8.15;;
11596;SDS011;5854;48.072;16.286;2024-01-30T12:27:44;15.82;;;9.48;;
11596;SDS011;5854;48.072;16.286;2024-01-30T12:30:16;12.52;;;8.98;;
11596;SDS011;5854;48.072;16.286;2024-01-30T12:32:45;28.08;;;9.90;;
11596;SDS011;5854;48.072;16.286;2024-01-30T12:35:15;19.25;;;9.50;;
11596;SDS011;5854;48.072;16.286;2024-01-30T12:37:44;18.40;;;10.10;;
11596;SDS011;5854;48.072;16.286;2024-01-30T12:40:14;17.70;;;11.80;;
11596;SDS011;5854;48.072;16.286;2024-01-30T12:42:41;15.82;;;10.45;;
11596;SDS011;5854;48.072;16.286;2024-01-30T12:45:15;14.35;;;10.23;;
11596;SDS011;5854;48.072;16.286;2024-01-30T12:47:46;18.02;;;9.70;;
11596;SDS011;5854;48.072;16.286;2024-01-30T12:50:14;18.70;;;9.95;;
11596;SDS011;5854;48.072;16.286;2024-01-30T12:52:42;17.77;;;10.10;;
11596;SDS011;5854;48.072;16.286;2024-01-30T12:55:10;18.52;;;10.00;;
11596;SDS011;5854;48.072;16.286;2024-01-30T12:57:38;13.40;;;9.63;;
11596;SDS011;5854;48.072;16.286;2024-01-30T13:00:06;13.95;;;9.43;;
11596;SDS011;5854;48.072;16.286;2024-01-30T13:02:35;11.25;;;8.60;;
11596;SDS011;5854;48.072;16.286;2024-01-30T13:05:05;20.38;;;10.13;;
11596;SDS011;5854;48.072;16.286;2024-01-30T13:07:32;13.85;;;9.18;;
11596;SDS011;5854;48.072;16.286;2024-01-30T13:10:01;17.67;;;9.45;;
11596;SDS011;5854;48.072;16.286;2024-01-30T13:12:28;17.00;;;9.18;;
11596;SDS011;5854;48.072;16.286;2024-01-30T13:14:57;22.83;;;10.13;;
11596;SDS011;5854;48.072;16.286;2024-01-30T13:17:26;13.48;;;9.68;;
11596;SDS011;5854;48.072;16.286;2024-01-30T13:19:55;14.63;;;9.82;;
11596;SDS011;5854;48.072;16.286;2024-01-30T13:22:23;12.82;;;8.55;;
11596;SDS011;5854;48.072;16.286;2024-01-30T13:24:50;16.25;;;9.88;;
11596;SDS011;5854;48.072;16.286;2024-01-30T13:27:17;18.02;;;9.25;;
11596;SDS011;5854;48.072;16.286;2024-01-30T13:29:44;11.82;;;7.70;;
11596;SDS011;5854;48.072;16.286;2024-01-30T13:32:12;17.55;;;8.80;;
11596;SDS011;5854;48.072;16.286;2024-01-30T13:34:39;18.48;;;10.43;;
11596;SDS011;5854;48.072;16.286;2024-01-30T13:37:08;20.42;;;10.82;;
11596;SDS011;5854;48.072;16.286;2024-01-30T13:39:35;10.63;;;8.52;;
11596;SDS011;5854;48.072;16.286;2024-01-30T13:42:05;23.50;;;9.70;;
11596;SDS011;5854;48.072;16.286;2024-01-30T13:44:32;20.00;;;9.23;;
11596;SDS011;5854;48.072;16.286;2024-01-30T13:47:04;21.63;;;9.43;;
11596;SDS011;5854;48.072;16.286;2024-01-30T13:49:31;9.48;;;8.13;;
11596;SDS011;5854;48.072;16.286;2024-01-30T13:51:59;12.52;;;8.82;;
11596;SDS011;5854;48.072;16.286;2024-01-30T13:54:27;17.85;;;8.07;;
11596;SDS011;5854;48.072;16.286;2024-01-30T13:56:55;10.93;;;8.18;;
11596;SDS011;5854;48.072;16.286;2024-01-30T13:59:23;13.32;;;8.45;;
11596;SDS011;5854;48.072;16.286;2024-01-30T14:01:53;12.43;;;8.68;;
11596;SDS011;5854;48.072;16.286;2024-01-30T14:04:20;14.82;;;8.05;;
11596;SDS011;5854;48.072;16.286;2024-01-30T14:06:47;14.30;;;6.60;;
11596;SDS011;5854;48.072;16.286;2024-01-30T14:09:14;11.32;;;7.95;;
11596;SDS011;5854;48.072;16.286;2024-01-30T14:11:43;13.38;;;8.73;;
11596;SDS011;5854;48.072;16.286;2024-01-30T14:14:13;18.30;;;8.82;;
11596;SDS011;5854;48.072;16.286;2024-01-30T14:16:40;15.75;;;8.15;;
11596;SDS011;5854;48.072;16.286;2024-01-30T14:19:10;13.55;;;8.00;;
11596;SDS011;5854;48.072;16.286;2024-01-30T14:21:37;12.05;;;7.60;;
11596;SDS011;5854;48.072;16.286;2024-01-30T14:24:05;11.40;;;6.97;;
11596;SDS011;5854;48.072;16.286;2024-01-30T14:26:32;14.05;;;7.82;;
11596;SDS011;5854;48.072;16.286;2024-01-30T14:29:01;8.52;;;7.72;;
11596;SDS011;5854;48.072;16.286;2024-01-30T14:31:28;10.68;;;5.85;;
11596;SDS011;5854;48.072;16.286;2024-01-30T14:33:55;14.65;;;7.07;;